Terminal Aerodrome Forecast
Issued by NWS

Home | Current Version | Previous Version | Graphics & Text | Print | Product List | Glossary Off
Versions: 1 2 3 4 5 6 7 8 9 10 11 12 13 14 15 16 17 18 19 20

845
FTUS42 KMHX 222332
TAFISO
TAF
KISO 222332Z 2300/2324 05006KT P6SM SCT008 BKN015
      TEMPO 2301/2303 BKN008
     FM230300 09012KT 4SM SHRA VCTS OVC007CB
     FM230700 12009KT P6SM OVC007
     FM231000 22007KT P6SM SCT015 BKN080
     FM231800 27005KT P6SM VCSH BKN035
      AMD LTD TO CLD VIS AND WIND=

USA.gov is the U.S. government's official web portal to all federal, state and local government web resources and services.